createdAt,value
2018-11-25T00:02:06.632Z,2.20
2018-11-25T00:04:33.320Z,1.90
2018-11-25T00:07:00.060Z,2.17
2018-11-25T00:09:26.786Z,2.23
2018-11-25T00:11:53.572Z,2.10
2018-11-25T00:14:20.364Z,2.00
2018-11-25T00:16:47.037Z,2.03
2018-11-25T00:19:14.437Z,1.80
2018-11-25T00:21:41.148Z,1.70
2018-11-25T00:24:07.806Z,2.00
2018-11-25T00:26:34.570Z,2.10
2018-11-25T00:29:01.303Z,1.60
2018-11-25T00:31:27.987Z,1.90
2018-11-25T00:33:54.655Z,1.80
2018-11-25T00:36:21.346Z,1.80
2018-11-25T00:38:48.071Z,2.07
2018-11-25T00:41:14.761Z,1.63
2018-11-25T00:43:41.419Z,1.97
2018-11-25T00:46:08.106Z,1.80
2018-11-25T00:48:34.749Z,1.73
2018-11-25T00:51:02.249Z,2.07
2018-11-25T00:53:29.183Z,1.80
2018-11-25T00:55:55.881Z,1.80
2018-11-25T00:58:22.595Z,1.67
2018-11-25T01:00:49.353Z,1.60
2018-11-25T01:03:16.031Z,1.40
2018-11-25T01:05:42.787Z,1.83
2018-11-25T01:08:09.528Z,1.83
2018-11-25T01:10:36.263Z,1.80
2018-11-25T01:13:03.071Z,2.10
2018-11-25T01:15:29.790Z,1.87
2018-11-25T01:17:56.498Z,1.90
2018-11-25T01:20:23.199Z,2.10
2018-11-25T01:22:50.789Z,1.80
2018-11-25T01:25:18.343Z,1.57
2018-11-25T01:27:45.144Z,2.00
2018-11-25T01:30:11.940Z,2.40
2018-11-25T01:32:38.653Z,1.70
2018-11-25T01:35:06.150Z,1.80
2018-11-25T01:37:33.005Z,1.90
2018-11-25T01:39:59.731Z,1.60
2018-11-25T01:42:26.480Z,1.70
2018-11-25T01:44:53.238Z,1.77
2018-11-25T01:47:19.983Z,1.90
2018-11-25T01:49:46.663Z,1.67
2018-11-25T01:52:13.446Z,1.50
2018-11-25T01:54:40.152Z,1.63
2018-11-25T01:57:07.002Z,1.60
2018-11-25T01:59:33.735Z,1.83
2018-11-25T02:02:00.545Z,1.80
2018-11-25T02:04:27.234Z,1.77
2018-11-25T02:06:53.910Z,1.80
2018-11-25T02:09:20.777Z,2.10
2018-11-25T02:11:48.161Z,1.90
2018-11-25T02:14:14.881Z,1.87
2018-11-25T02:16:42.352Z,1.90
2018-11-25T02:19:09.082Z,2.40
2018-11-25T02:21:35.778Z,2.00
2018-11-25T02:24:02.671Z,2.20
2018-11-25T02:26:29.329Z,2.10
2018-11-25T02:28:56.111Z,2.10
2018-11-25T02:31:22.819Z,1.90
2018-11-25T02:33:49.586Z,2.10
2018-11-25T02:36:16.372Z,2.13
2018-11-25T02:38:43.059Z,1.97
2018-11-25T02:41:10.574Z,2.57
2018-11-25T02:43:37.288Z,1.90
2018-11-25T02:46:04.976Z,1.90
2018-11-25T02:48:31.819Z,2.20
2018-11-25T02:50:58.541Z,1.73
2018-11-25T02:53:25.237Z,1.80
2018-11-25T02:55:52.081Z,1.67
2018-11-25T02:58:18.808Z,1.90
2018-11-25T03:00:45.527Z,1.60
2018-11-25T03:03:12.337Z,1.63
2018-11-25T03:05:39.784Z,2.33
2018-11-25T03:08:06.514Z,2.00
2018-11-25T03:10:33.231Z,1.97
2018-11-25T03:12:59.902Z,2.27
2018-11-25T03:15:26.683Z,2.00
2018-11-25T03:17:53.477Z,1.77
2018-11-25T03:20:20.195Z,1.90
2018-11-25T03:22:47.720Z,2.00
2018-11-25T03:25:14.443Z,1.80
2018-11-25T03:27:41.905Z,1.67
2018-11-25T03:30:09.361Z,1.70
2018-11-25T03:32:36.048Z,1.60
2018-11-25T03:35:02.804Z,1.90
2018-11-25T03:37:29.537Z,1.90
2018-11-25T03:42:47.519Z,2.70
2018-11-25T03:45:14.300Z,2.20
2018-11-25T03:47:41.057Z,2.03
2018-11-25T03:50:07.835Z,2.00
2018-11-25T03:52:35.217Z,2.00
2018-11-25T03:55:02.092Z,1.87
2018-11-25T03:57:28.906Z,1.90
2018-11-25T03:59:55.562Z,1.90
2018-11-25T04:02:22.267Z,1.90
2018-11-25T04:04:49.896Z,2.10
2018-11-25T04:07:16.543Z,2.03
2018-11-25T04:09:44.018Z,1.70
2018-11-25T04:12:10.818Z,1.90
2018-11-25T04:14:37.577Z,1.57
2018-11-25T04:17:04.299Z,1.63
2018-11-25T04:19:30.985Z,1.50
2018-11-25T04:21:57.782Z,1.47
2018-11-25T04:24:24.596Z,1.70
2018-11-25T04:26:51.338Z,1.73
2018-11-25T04:29:18.069Z,1.93
2018-11-25T04:31:44.788Z,1.70
2018-11-25T04:34:11.501Z,1.60
2018-11-25T04:36:38.277Z,2.33
2018-11-25T04:39:05.857Z,1.50
2018-11-25T04:41:32.725Z,1.40
2018-11-25T04:44:14.316Z,2.00
2018-11-25T04:46:41.005Z,1.73
2018-11-25T04:49:08.472Z,1.20
2018-11-25T04:51:36.251Z,1.47
2018-11-25T04:54:03.094Z,1.73
2018-11-25T04:56:29.784Z,1.90
2018-11-25T04:58:56.452Z,1.93
2018-11-25T05:01:23.908Z,1.60
2018-11-25T05:03:51.342Z,2.03
2018-11-25T05:06:18.053Z,1.77
2018-11-25T05:08:44.718Z,1.57
2018-11-25T05:11:12.291Z,1.63
2018-11-25T05:13:38.933Z,2.00
2018-11-25T05:16:05.704Z,1.73
2018-11-25T05:18:32.520Z,1.90
2018-11-25T05:20:59.197Z,1.50
2018-11-25T05:23:26.847Z,1.57
2018-11-25T05:25:53.591Z,1.47
2018-11-25T05:28:20.344Z,1.53
2018-11-25T05:30:47.078Z,1.80
2018-11-25T05:33:13.726Z,1.57
2018-11-25T05:35:40.449Z,1.70
2018-11-25T05:38:07.248Z,2.13
2018-11-25T05:40:33.959Z,1.77
2018-11-25T05:43:00.705Z,1.67
2018-11-25T05:45:27.381Z,1.60
2018-11-25T05:47:54.823Z,1.40
2018-11-25T05:50:22.272Z,1.70
2018-11-25T05:52:49.030Z,1.93
2018-11-25T05:55:16.455Z,1.50
2018-11-25T05:57:43.238Z,1.73
2018-11-25T06:00:10.008Z,1.83
2018-11-25T06:02:36.767Z,1.23
2018-11-25T06:05:04.280Z,1.70
2018-11-25T06:07:31.789Z,1.60
2018-11-25T06:09:58.497Z,1.47
2018-11-25T06:12:25.274Z,1.67
2018-11-25T06:14:51.983Z,1.53
2018-11-25T06:17:18.638Z,1.90
2018-11-25T06:19:45.428Z,1.53
2018-11-25T06:22:12.866Z,1.60
2018-11-25T06:24:39.538Z,2.10
2018-11-25T06:27:06.377Z,1.97
2018-11-25T06:29:33.127Z,1.67
2018-11-25T06:31:59.847Z,1.90
2018-11-25T06:34:27.438Z,1.57
2018-11-25T06:36:54.953Z,1.47
2018-11-25T06:39:21.634Z,1.73
2018-11-25T06:41:48.394Z,1.90
2018-11-25T06:44:15.180Z,1.80
2018-11-25T06:46:42.635Z,1.87
2018-11-25T06:49:09.338Z,2.27
2018-11-25T06:51:35.993Z,2.00
2018-11-25T06:54:02.775Z,2.10
2018-11-25T06:56:29.525Z,1.97
2018-11-25T06:58:56.200Z,1.67
2018-11-25T07:01:22.890Z,2.00
2018-11-25T07:03:49.613Z,1.70
2018-11-25T07:06:16.272Z,1.90
2018-11-25T07:08:43.784Z,1.50
2018-11-25T07:11:10.476Z,2.00
2018-11-25T07:13:37.952Z,1.90
2018-11-25T07:16:06.506Z,1.63
2018-11-25T07:18:32.858Z,1.30
2018-11-25T07:20:59.631Z,1.53
2018-11-25T07:23:26.462Z,1.70
2018-11-25T07:25:53.357Z,1.97
2018-11-25T07:28:20.316Z,1.60
2018-11-25T07:30:47.664Z,1.80
2018-11-25T07:33:14.414Z,1.37
2018-11-25T07:35:41.860Z,1.70
2018-11-25T07:38:08.574Z,1.80
2018-11-25T07:40:35.374Z,1.50
2018-11-25T07:43:02.834Z,1.60
2018-11-25T07:45:30.840Z,1.40
2018-11-25T07:47:56.436Z,1.63
2018-11-25T07:50:23.168Z,1.80
2018-11-25T07:52:49.869Z,2.00
2018-11-25T07:55:17.277Z,1.87
2018-11-25T07:57:44.001Z,1.57
2018-11-25T08:00:10.755Z,1.87
2018-11-25T08:02:41.642Z,2.10
2018-11-25T08:05:04.307Z,1.90
2018-11-25T08:07:30.988Z,1.70
2018-11-25T08:09:57.712Z,2.00
2018-11-25T08:12:25.283Z,2.27
2018-11-25T08:14:52.595Z,2.27
2018-11-25T08:17:19.439Z,2.20
2018-11-25T08:19:46.280Z,2.37
2018-11-25T08:22:13.118Z,2.10
2018-11-25T08:24:39.855Z,2.17
2018-11-25T08:27:06.535Z,2.50
2018-11-25T08:29:33.206Z,2.13
2018-11-25T08:31:59.941Z,1.90
2018-11-25T08:34:27.459Z,1.93
2018-11-25T08:36:54.227Z,1.87
2018-11-25T08:39:20.994Z,2.00
2018-11-25T08:41:48.475Z,1.73
2018-11-25T08:44:15.186Z,1.73
2018-11-25T08:46:41.912Z,1.80
2018-11-25T08:49:08.578Z,1.70
2018-11-25T08:51:35.255Z,1.63
2018-11-25T08:54:01.960Z,1.57
2018-11-25T08:56:29.338Z,1.73
2018-11-25T08:58:56.274Z,2.13
2018-11-25T09:01:23.075Z,2.37
2018-11-25T09:03:50.185Z,1.53
2018-11-25T09:06:16.953Z,1.90
2018-11-25T09:08:43.740Z,1.90
2018-11-25T09:11:10.447Z,1.93
2018-11-25T09:13:37.941Z,1.70
2018-11-25T09:16:04.622Z,2.00
2018-11-25T09:18:31.314Z,2.10
2018-11-25T09:20:58.774Z,1.67
2018-11-25T09:23:25.702Z,1.67
2018-11-25T09:25:53.133Z,1.80
2018-11-25T09:28:19.839Z,1.60
2018-11-25T09:30:47.351Z,1.40
2018-11-25T09:33:14.170Z,1.97
2018-11-25T09:35:40.854Z,1.60
2018-11-25T09:38:08.617Z,1.60
2018-11-25T09:40:35.272Z,1.63
2018-11-25T09:43:01.966Z,1.70
2018-11-25T09:45:28.770Z,1.73
2018-11-25T09:47:55.917Z,1.80
2018-11-25T09:50:23.090Z,1.27
2018-11-25T09:52:50.133Z,1.87
2018-11-25T09:55:18.366Z,1.77
2018-11-25T09:57:46.140Z,1.90
2018-11-25T10:00:14.312Z,1.40
2018-11-25T10:02:41.632Z,1.57
2018-11-25T10:05:09.122Z,1.37
2018-11-25T10:07:36.321Z,1.60
2018-11-25T10:10:03.069Z,1.43
2018-11-25T10:12:30.511Z,1.30
2018-11-25T10:14:58.132Z,0.80
2018-11-25T10:17:25.399Z,1.67
2018-11-25T10:19:52.058Z,1.20
2018-11-25T10:22:18.903Z,1.27
2018-11-25T10:24:45.737Z,1.30
2018-11-25T10:27:13.428Z,1.50
2018-11-25T10:29:40.144Z,1.57
2018-11-25T10:32:06.835Z,1.70
2018-11-25T10:34:34.082Z,1.50
2018-11-25T10:37:01.080Z,1.37
2018-11-25T10:39:28.542Z,1.40
2018-11-25T10:41:55.213Z,1.37
2018-11-25T10:44:22.025Z,1.27
2018-11-25T10:46:48.784Z,1.10
2018-11-25T10:49:16.474Z,1.60
2018-11-25T10:51:43.448Z,1.40
2018-11-25T10:54:10.179Z,1.30
2018-11-25T10:56:36.859Z,1.03
2018-11-25T10:59:03.673Z,1.50
2018-11-25T11:01:30.516Z,1.50
2018-11-25T11:03:57.267Z,1.53
2018-11-25T11:06:24.105Z,1.60
2018-11-25T11:08:50.776Z,1.43
2018-11-25T11:11:17.470Z,1.27
2018-11-25T11:13:44.275Z,1.50
2018-11-25T11:16:10.977Z,1.50
2018-11-25T11:18:37.688Z,1.37
2018-11-25T11:21:04.489Z,1.20
2018-11-25T11:23:31.945Z,1.33
2018-11-25T11:26:02.433Z,1.33
2018-11-25T11:28:25.625Z,1.10
2018-11-25T11:30:52.348Z,1.00
2018-11-25T11:33:19.035Z,1.60
2018-11-25T11:35:45.783Z,1.30
2018-11-25T11:38:12.502Z,1.53
2018-11-25T11:40:39.894Z,1.10
2018-11-25T11:43:06.636Z,1.20
2018-11-25T11:45:33.471Z,1.37
2018-11-25T11:48:00.125Z,1.30
2018-11-25T11:50:26.804Z,1.43
2018-11-25T11:52:54.238Z,1.63
2018-11-25T11:55:20.999Z,1.73
2018-11-25T11:57:47.728Z,1.50
2018-11-25T12:00:14.729Z,1.50
2018-11-25T12:02:41.571Z,1.50
2018-11-25T12:05:08.290Z,1.37
2018-11-25T12:07:35.768Z,1.40
2018-11-25T12:10:02.600Z,1.43
2018-11-25T12:12:29.274Z,1.47
2018-11-25T12:14:55.945Z,1.67
2018-11-25T12:17:22.713Z,1.27
2018-11-25T12:19:50.099Z,1.30
2018-11-25T12:22:16.800Z,1.70
2018-11-25T12:24:44.495Z,1.40
2018-11-25T12:27:11.227Z,1.50
2018-11-25T12:29:38.071Z,1.60
2018-11-25T12:32:05.015Z,1.50
2018-11-25T12:34:31.718Z,1.87
2018-11-25T12:36:58.429Z,1.23
2018-11-25T12:39:28.473Z,1.10
2018-11-25T12:41:51.933Z,1.50
2018-11-25T12:44:18.632Z,1.57
2018-11-25T12:46:45.411Z,1.20
2018-11-25T12:49:12.149Z,1.77
2018-11-25T12:51:39.717Z,1.50
2018-11-25T12:54:06.735Z,1.47
2018-11-25T12:56:33.834Z,1.53
2018-11-25T12:59:01.119Z,1.40
2018-11-25T13:01:28.351Z,1.70
2018-11-25T13:03:55.434Z,1.90
2018-11-25T13:06:22.140Z,1.93
2018-11-25T13:08:48.959Z,2.27
2018-11-25T13:11:16.388Z,1.87
2018-11-25T13:13:43.080Z,1.80
2018-11-25T13:16:09.910Z,2.07
2018-11-25T13:18:37.615Z,1.73
2018-11-25T13:21:04.315Z,1.70
2018-11-25T13:23:31.818Z,1.60
2018-11-25T13:25:58.878Z,1.40
2018-11-25T13:28:26.706Z,2.00
2018-11-25T13:30:53.533Z,1.80
2018-11-25T13:33:20.194Z,2.10
2018-11-25T13:35:47.021Z,1.90
2018-11-25T13:38:13.703Z,1.77
2018-11-25T13:40:40.606Z,1.50
2018-11-25T13:43:07.465Z,2.23
2018-11-25T13:45:34.260Z,1.67
2018-11-25T13:48:01.749Z,1.60
2018-11-25T13:50:28.593Z,2.03
2018-11-25T13:52:55.278Z,1.63
2018-11-25T13:55:22.056Z,1.77
2018-11-25T13:57:48.766Z,1.57
2018-11-25T14:00:15.442Z,1.60
2018-11-25T14:02:42.127Z,2.10
2018-11-25T14:05:08.850Z,1.70
2018-11-25T14:07:35.527Z,1.57
2018-11-25T14:10:02.296Z,2.00
2018-11-25T14:12:28.992Z,2.00
2018-11-25T14:14:56.478Z,1.80
2018-11-25T14:17:23.928Z,1.93
2018-11-25T14:19:50.608Z,2.13
2018-11-25T14:22:17.446Z,2.40
2018-11-25T14:24:44.141Z,2.10
2018-11-25T14:27:11.561Z,1.77
2018-11-25T14:29:38.293Z,2.00
2018-11-25T14:32:05.782Z,1.83
2018-11-25T14:34:32.498Z,1.60
2018-11-25T14:36:59.271Z,1.90
2018-11-25T14:39:25.971Z,1.60
2018-11-25T14:41:52.645Z,1.97
2018-11-25T14:44:19.351Z,1.97
2018-11-25T14:46:46.053Z,1.83
2018-11-25T14:49:13.510Z,1.40
2018-11-25T14:51:40.302Z,1.90
2018-11-25T14:54:07.006Z,1.70
2018-11-25T14:56:33.660Z,1.60
2018-11-25T14:59:00.464Z,1.60
2018-11-25T15:01:27.123Z,1.70
2018-11-25T15:03:53.826Z,1.73
2018-11-25T15:06:21.296Z,1.80
2018-11-25T15:08:48.052Z,1.97
2018-11-25T15:11:15.582Z,1.70
2018-11-25T15:13:42.997Z,2.37
2018-11-25T15:16:09.657Z,1.90
2018-11-25T15:18:36.423Z,2.30
2018-11-25T15:21:04.063Z,2.17
2018-11-25T15:23:31.788Z,3.13
2018-11-25T15:25:58.686Z,2.57
2018-11-25T15:28:25.470Z,2.30
2018-11-25T15:30:52.346Z,2.60
2018-11-25T15:33:19.136Z,2.03
2018-11-25T15:35:45.888Z,2.10
2018-11-25T15:38:13.435Z,2.07
2018-11-25T15:40:40.902Z,2.33
2018-11-25T15:43:08.606Z,2.20
2018-11-25T15:45:35.731Z,2.30
2018-11-25T15:48:02.487Z,2.60
2018-11-25T15:50:29.206Z,2.37
2018-11-25T15:52:56.330Z,2.30
2018-11-25T15:55:23.077Z,2.10
2018-11-25T15:57:49.810Z,2.67
2018-11-25T16:00:17.713Z,2.23
2018-11-25T16:02:44.727Z,2.17
2018-11-25T16:05:11.446Z,2.37
2018-11-25T16:07:39.048Z,2.47
2018-11-25T16:10:05.902Z,2.20
2018-11-25T16:12:32.608Z,2.40
2018-11-25T16:15:00.092Z,2.10
2018-11-25T16:17:26.882Z,2.03
2018-11-25T16:19:54.343Z,2.67
2018-11-25T16:22:21.172Z,2.40
2018-11-25T16:24:47.938Z,1.97
2018-11-25T16:27:14.626Z,2.30
2018-11-25T16:29:41.324Z,2.33
2018-11-25T16:32:08.793Z,2.60
2018-11-25T16:34:36.236Z,2.50
2018-11-25T16:37:02.938Z,2.40
2018-11-25T16:39:29.740Z,2.60
2018-11-25T16:41:56.423Z,2.80
2018-11-25T16:44:23.235Z,2.20
2018-11-25T16:46:50.799Z,2.50
2018-11-25T16:49:17.740Z,2.70
2018-11-25T16:51:44.548Z,2.30
2018-11-25T16:54:11.983Z,2.20
2018-11-25T16:56:38.742Z,2.43
2018-11-25T16:59:05.572Z,2.23
2018-11-25T17:01:33.081Z,2.23
2018-11-25T17:03:59.780Z,2.20
2018-11-25T17:06:26.443Z,2.07
2018-11-25T17:08:53.173Z,2.27
2018-11-25T17:11:19.922Z,2.07
2018-11-25T17:13:46.640Z,2.37
2018-11-25T17:16:14.131Z,2.00
2018-11-25T17:18:40.786Z,2.20
2018-11-25T17:21:07.517Z,2.30
2018-11-25T17:23:34.327Z,2.37
2018-11-25T17:26:02.149Z,2.10
2018-11-25T17:28:30.089Z,2.10
2018-11-25T17:30:58.024Z,2.30
2018-11-25T17:33:25.524Z,2.37
2018-11-25T17:35:53.331Z,2.10
2018-11-25T17:38:20.004Z,2.37
2018-11-25T17:40:46.750Z,3.00
2018-11-25T17:43:13.499Z,2.67
2018-11-25T17:45:40.233Z,2.57
2018-11-25T17:48:06.950Z,2.60
2018-11-25T17:50:34.546Z,2.80
2018-11-25T17:53:02.452Z,2.47
2018-11-25T17:55:29.416Z,2.90
2018-11-25T17:57:56.401Z,2.60
2018-11-25T18:00:32.873Z,2.57
2018-11-25T18:02:59.587Z,2.53
2018-11-25T18:05:27.802Z,2.60
2018-11-25T18:07:54.504Z,2.70
2018-11-25T18:10:21.410Z,2.50
2018-11-25T18:12:51.428Z,2.67
2018-11-25T18:15:19.179Z,3.10
2018-11-25T18:17:46.590Z,2.53
2018-11-25T18:20:13.560Z,2.93
2018-11-25T18:22:40.666Z,3.10
2018-11-25T18:25:07.805Z,2.53
2018-11-25T18:27:35.180Z,2.90
2018-11-25T18:30:02.403Z,3.10
2018-11-25T18:32:29.221Z,2.37
2018-11-25T18:34:56.390Z,2.90
2018-11-25T18:37:23.384Z,2.77
2018-11-25T18:39:50.171Z,2.80
2018-11-25T18:42:17.296Z,2.87
2018-11-25T18:44:44.147Z,2.80
2018-11-25T18:47:12.122Z,2.77
2018-11-25T18:49:38.866Z,3.07
2018-11-25T18:52:05.687Z,2.97
2018-11-25T18:54:33.283Z,2.63
2018-11-25T18:57:01.112Z,2.87
2018-11-25T18:59:27.845Z,2.80
2018-11-25T19:01:54.567Z,3.27
2018-11-25T19:04:21.978Z,3.70
2018-11-25T19:06:48.734Z,3.30
2018-11-25T19:09:16.185Z,3.30
2018-11-25T19:11:42.868Z,3.13
2018-11-25T19:14:10.646Z,3.33
2018-11-25T19:16:37.718Z,3.00
2018-11-25T19:19:04.282Z,3.37
2018-11-25T19:21:31.086Z,3.37
2018-11-25T19:23:57.797Z,3.00
2018-11-25T19:26:24.656Z,2.80
2018-11-25T19:28:51.498Z,3.37
2018-11-25T19:31:18.215Z,3.13
2018-11-25T19:33:45.085Z,3.40
2018-11-25T19:36:11.826Z,3.30
2018-11-25T19:38:39.350Z,3.00
2018-11-25T19:41:07.640Z,2.97
2018-11-25T19:43:36.073Z,2.90
2018-11-25T19:46:03.182Z,2.80
2018-11-25T19:48:30.032Z,2.90
2018-11-25T19:50:57.131Z,2.83
2018-11-25T19:53:24.437Z,3.00
2018-11-25T19:55:51.206Z,3.20
2018-11-25T19:58:18.044Z,3.43
2018-11-25T20:00:46.307Z,3.50
2018-11-25T20:03:14.091Z,3.60
2018-11-25T20:05:40.838Z,3.37
2018-11-25T20:08:08.459Z,2.97
2018-11-25T20:10:35.508Z,3.03
2018-11-25T20:13:03.271Z,3.27
2018-11-25T20:15:30.136Z,3.13
2018-11-25T20:17:57.780Z,2.60
2018-11-25T20:20:25.061Z,2.93
2018-11-25T20:22:52.000Z,2.70
2018-11-25T20:25:18.819Z,2.73
2018-11-25T20:27:45.610Z,2.80
2018-11-25T20:30:13.717Z,2.87
2018-11-25T20:32:40.480Z,2.30
2018-11-25T20:35:07.857Z,2.07
2018-11-25T20:37:35.828Z,2.50
2018-11-25T20:40:03.693Z,2.60
2018-11-25T20:42:31.886Z,2.50
2018-11-25T20:44:58.637Z,2.57
2018-11-25T20:47:26.083Z,2.27
2018-11-25T20:49:54.027Z,2.50
2018-11-25T20:55:15.759Z,3.17
2018-11-25T20:57:43.676Z,2.77
2018-11-25T21:00:10.352Z,2.40
2018-11-25T21:02:37.196Z,2.40
2018-11-25T21:05:04.653Z,2.40
2018-11-25T21:07:31.667Z,2.80
2018-11-25T21:09:59.124Z,2.67
2018-11-25T21:12:26.741Z,2.60
2018-11-25T21:14:54.223Z,2.73
2018-11-25T21:17:22.385Z,2.40
2018-11-25T21:19:49.353Z,2.47
2018-11-25T21:22:16.983Z,2.37
2018-11-25T21:24:43.659Z,2.43
2018-11-25T21:27:10.387Z,3.20
2018-11-25T21:29:37.076Z,2.80
2018-11-25T21:32:04.250Z,3.07
2018-11-25T21:34:31.034Z,2.60
2018-11-25T21:36:57.813Z,2.67
2018-11-25T21:39:24.533Z,2.50
2018-11-25T21:41:51.320Z,2.57
2018-11-25T21:44:18.782Z,2.40
2018-11-25T21:46:46.210Z,2.23
2018-11-25T21:49:12.952Z,2.40
2018-11-25T21:51:39.720Z,2.47
2018-11-25T21:54:06.422Z,2.70
2018-11-25T21:56:33.376Z,2.40
2018-11-25T21:59:00.398Z,2.37
2018-11-25T22:01:27.805Z,2.63
2018-11-25T22:03:54.661Z,2.80
2018-11-25T22:06:21.362Z,2.43
2018-11-25T22:08:49.019Z,2.97
2018-11-25T22:11:15.860Z,2.80
2018-11-25T22:13:44.175Z,2.90
2018-11-25T22:16:11.323Z,2.57
2018-11-25T22:18:38.053Z,2.73
2018-11-25T22:21:05.789Z,2.20
2018-11-25T22:23:33.171Z,2.60
2018-11-25T22:26:00.444Z,2.33
2018-11-25T22:28:27.091Z,2.20
2018-11-25T22:30:53.802Z,2.33
2018-11-25T22:33:23.381Z,2.40
2018-11-25T22:35:50.906Z,2.40
2018-11-25T22:38:18.533Z,2.60
2018-11-25T22:40:45.273Z,2.40
2018-11-25T22:43:11.930Z,2.13
2018-11-25T22:45:39.568Z,2.47
2018-11-25T22:48:11.202Z,2.40
2018-11-25T22:50:38.987Z,2.73
2018-11-25T22:53:05.827Z,2.63
2018-11-25T22:55:33.055Z,2.23
2018-11-25T22:58:00.567Z,2.63
2018-11-25T23:00:27.417Z,2.37
2018-11-25T23:02:56.648Z,2.80
2018-11-25T23:08:23.541Z,3.28
2018-11-25T23:10:50.301Z,2.33
2018-11-25T23:13:16.961Z,2.33
2018-11-25T23:15:43.899Z,1.83
2018-11-25T23:18:10.724Z,2.10
2018-11-25T23:20:37.393Z,1.93
2018-11-25T23:23:04.884Z,1.90
2018-11-25T23:25:31.952Z,1.80
2018-11-25T23:27:59.274Z,1.90
2018-11-25T23:30:26.149Z,2.07
2018-11-25T23:32:53.791Z,2.00
2018-11-25T23:35:21.053Z,1.93
2018-11-25T23:37:47.861Z,2.17
2018-11-25T23:40:14.938Z,2.30
2018-11-25T23:42:41.986Z,2.53
2018-11-25T23:45:08.759Z,2.30
2018-11-25T23:47:37.083Z,1.93
2018-11-25T23:50:03.830Z,1.70
2018-11-25T23:52:31.521Z,1.97
2018-11-25T23:54:58.322Z,1.67
2018-11-25T23:57:26.669Z,1.50
2018-11-25T23:59:53.794Z,1.70
